METAR ET TAF INFORMATION
METAR FOR LFST
ADDS - METARS form results

(2054 UTC 26 May 2020)
Data provider http://aviationweather.gov/metar/data/
 
METAR text: LFST 262030Z AUTO 04007KT CAVOK 17/07 Q1033 NOSIG
Conditions at: LFST (STRASBOURG/ENTZH, FR) observed 2030 UTC 26 May 2020
Temperature: 17.0°C (63°F)
Dewpoint: 7.0°C (45°F) [RH = 52%]
Pressure (altimeter): 30.50 inches Hg (1033.0 mb)
Winds: from the NE (40 degrees) at 8 MPH (7 knots; 3.6 m/s)
Visibility: 6 or more miles (10+ km)
Ceiling: ceiling and visibility are OK
Clouds: unknown
Weather: no significant weather observed at this time

METAR text: LFST 262000Z AUTO 04008KT CAVOK 18/07 Q1033 NOSIG
Conditions at: LFST (STRASBOURG/ENTZH, FR) observed 2000 UTC 26 May 2020
Temperature: 18.0°C (64°F)
Dewpoint: 7.0°C (45°F) [RH = 49%]
Pressure (altimeter): 30.50 inches Hg (1033.0 mb)
Winds: from the NE (40 degrees) at 9 MPH (8 knots; 4.1 m/s)
Visibility: 6 or more miles (10+ km)
Ceiling: ceiling and visibility are OK
Clouds: unknown
Weather: no significant weather observed at this time

Forecast for: LFST (STRASBOURG/ENTZH, FR)
Text: TAF LFST 261700Z 2618/2718 03010KT CAVOK
Forecast period: 1800 UTC 26 May 2020 to 1800 UTC 27 May 2020
Forecast type: FROM: standard forecast or significant change
Winds: from the NNE (30 degrees) at 12 MPH (10 knots; 5.1 m/s)
Visibility: 6 or more miles 10+ km)
Ceiling: unknown
Clouds: missing
Weather: NSW  (no significant weather)
Text: PROB40 2702/2706 32004KT
Forecast period: 0200 to 0600 UTC 27 May 2020
Forecast type: PROBABLE: 40 percent likelihood of the following during this time
Winds: from the NW (320 degrees) at 5 MPH (4 knots; 2.1 m/s)
Visibility: missing
Ceiling: unknown
Clouds: missing
Weather: no significant weather forecast for this period

 AÉROPORT DE AÉROPORT

 INFORMATIONS DE PISTE
Piste 05 Longueur de la piste 7874 ft Largeur de la piste 148 ft
Élévation de la piste 503 ft Seuil de la piste déplacés 0 ft Runway heading 49
Piste 23 Longueur de la piste 7874 ft Largeur de la piste 148 ft
Élévation de la piste 491 ft Seuil de la piste déplacés 0 ft Runway heading 229

 AÉROPORT FRÉQUENCES
Type APP Nom STRASBOURG Féquence 119.45 MHZ
Type ATIS Nom STRASBOURG Féquence 126.925 MHZ
Type GND Nom STRASBOURG Féquence 121.8 MHZ
Type TWR Nom STRASBOURG Féquence 126.875 MHZ

 SIDA DE NAVIGATION
Type VOR-DME Nom Saverne Féquence 110450 KHZ
Type VOR-DME Nom Strasbourg Féquence 115600 KHZ



Powered by Virtual Airlines Manager [v2.6.2]